createdAt,value
2023-01-10T00:08:05.765Z,45.75
2023-01-10T00:11:32.241Z,44.50
2023-01-10T00:21:09.046Z,35.50
2023-01-10T00:48:07.382Z,18.50
2023-01-10T00:58:09.951Z,14.25
2023-01-10T01:07:31.001Z,9.25
2023-01-10T01:10:16.623Z,7.00
2023-01-10T01:12:43.532Z,7.25
2023-01-10T01:15:10.673Z,2.75
2023-01-10T01:17:37.558Z,5.75
2023-01-10T01:20:04.904Z,5.75
2023-01-10T01:22:31.883Z,7.75
2023-01-10T01:24:58.803Z,4.50
2023-01-10T01:27:25.729Z,12.50
2023-01-10T01:29:52.652Z,25.50
2023-01-10T01:32:19.636Z,19.50
2023-01-10T01:34:46.518Z,14.00
2023-01-10T01:37:13.392Z,13.00
2023-01-10T01:39:40.280Z,13.25
2023-01-10T01:42:07.364Z,17.25
2023-01-10T01:44:39.710Z,17.25
2023-01-10T01:47:13.516Z,25.25
2023-01-10T01:49:45.294Z,26.25
2023-01-10T01:52:19.336Z,26.75
2023-01-10T01:54:46.729Z,25.75
2023-01-10T01:57:17.852Z,35.00
2023-01-10T01:59:47.433Z,37.25
2023-01-10T02:02:19.571Z,28.50
2023-01-10T02:04:54.907Z,34.50
2023-01-10T02:07:24.358Z,30.00
2023-01-10T02:10:18.446Z,27.00
2023-01-10T02:13:08.964Z,40.25
2023-01-10T02:15:53.120Z,25.50
2023-01-10T02:18:35.961Z,21.00
2023-01-10T02:21:47.716Z,29.75
2023-01-10T02:25:02.715Z,33.75
2023-01-10T02:28:12.348Z,27.25
2023-01-10T02:30:50.174Z,23.00
2023-01-10T02:33:38.344Z,28.50
2023-01-10T02:36:50.130Z,29.00
2023-01-10T02:39:17.150Z,36.50
2023-01-10T02:42:07.265Z,32.25
2023-01-10T02:44:50.714Z,30.75
2023-01-10T02:47:17.598Z,25.50
2023-01-10T02:49:47.473Z,20.75
2023-01-10T02:52:21.264Z,19.50
2023-01-10T02:54:50.073Z,29.00
2023-01-10T02:57:47.911Z,28.75
2023-01-10T03:00:32.558Z,31.75
2023-01-10T03:03:10.105Z,24.50
2023-01-10T03:05:55.358Z,32.50
2023-01-10T03:08:29.074Z,25.50
2023-01-10T03:11:02.964Z,36.00
2023-01-10T03:13:50.067Z,42.25
2023-01-10T03:16:21.298Z,28.00
2023-01-10T03:18:54.304Z,26.00
2023-01-10T03:21:23.948Z,30.25
2023-01-10T03:23:56.621Z,30.50
2023-01-10T03:26:35.433Z,29.50
2023-01-10T03:29:08.155Z,27.25
2023-01-10T03:31:57.704Z,28.25
2023-01-10T03:34:25.837Z,28.25
2023-01-10T03:37:19.317Z,24.50
2023-01-10T03:40:00.883Z,34.50
2023-01-10T03:43:06.969Z,31.00
2023-01-10T03:45:48.758Z,26.25
2023-01-10T03:48:17.267Z,15.50
2023-01-10T03:50:45.720Z,24.25
2023-01-10T03:53:15.715Z,16.00
2023-01-10T03:55:45.020Z,24.00
2023-01-10T03:58:11.951Z,17.00
2023-01-10T04:00:39.728Z,15.50
2023-01-10T04:03:06.672Z,19.50
2023-01-10T04:05:33.588Z,15.00
2023-01-10T04:08:00.564Z,16.75
2023-01-10T04:10:29.615Z,14.50
2023-01-10T04:13:01.645Z,13.00
2023-01-10T04:15:29.182Z,12.25
2023-01-10T04:17:56.705Z,10.00
2023-01-10T04:20:26.815Z,15.25
2023-01-10T04:22:54.987Z,14.75
2023-01-10T04:25:23.481Z,9.50
2023-01-10T04:27:51.646Z,11.75
2023-01-10T04:30:20.430Z,6.50
2023-01-10T04:32:48.480Z,6.00
2023-01-10T04:35:15.719Z,6.75
2023-01-10T04:37:43.733Z,8.75
2023-01-10T04:40:11.329Z,2.00
2023-01-10T04:42:38.227Z,5.00
2023-01-10T04:45:05.964Z,5.00
2023-01-10T04:47:32.972Z,7.50
2023-01-10T04:49:59.889Z,7.00
2023-01-10T04:52:28.445Z,5.00
2023-01-10T04:54:55.440Z,4.50
2023-01-10T04:57:22.467Z,3.00
2023-01-10T04:59:49.387Z,3.25
2023-01-10T05:02:17.001Z,6.25
2023-01-10T05:04:43.970Z,6.25
2023-01-10T05:07:12.482Z,5.00
2023-01-10T05:09:39.446Z,7.00
2023-01-10T05:12:06.553Z,6.50
2023-01-10T05:14:33.541Z,6.00
2023-01-10T05:17:00.448Z,6.25
2023-01-10T05:19:27.383Z,10.25
2023-01-10T05:21:54.281Z,7.00
2023-01-10T05:24:21.276Z,13.50
2023-01-10T05:26:48.276Z,7.00
2023-01-10T05:29:15.254Z,8.00
2023-01-10T05:31:42.554Z,7.00
2023-01-10T05:34:14.276Z,9.00
2023-01-10T05:36:41.212Z,14.50
2023-01-10T05:39:08.292Z,11.50
2023-01-10T05:41:35.194Z,9.25
2023-01-10T05:44:02.171Z,15.75
2023-01-10T05:46:29.733Z,12.25
2023-01-10T05:48:56.664Z,15.75
2023-01-10T05:51:23.590Z,28.75
2023-01-10T05:53:50.522Z,20.00
2023-01-10T05:56:17.689Z,23.25
2023-01-10T05:58:47.311Z,22.00
2023-01-10T06:01:16.902Z,24.50
2023-01-10T06:03:44.077Z,18.00
2023-01-10T06:06:11.125Z,22.75
2023-01-10T06:08:38.097Z,13.00
2023-01-10T06:11:05.907Z,21.00
2023-01-10T06:13:33.621Z,15.00
2023-01-10T06:16:00.808Z,11.75
2023-01-10T06:18:27.754Z,21.50
2023-01-10T06:20:54.747Z,22.50
2023-01-10T06:23:21.889Z,21.50
2023-01-10T06:25:48.836Z,21.00
2023-01-10T06:28:15.827Z,31.00
2023-01-10T06:30:43.728Z,29.50
2023-01-10T06:33:12.188Z,26.50
2023-01-10T06:35:39.176Z,22.50
2023-01-10T06:38:06.304Z,14.25
2023-01-10T06:40:33.301Z,13.25
2023-01-10T06:43:00.491Z,13.25
2023-01-10T06:45:27.442Z,26.25
2023-01-10T06:47:54.441Z,13.00
2023-01-10T06:50:22.054Z,24.00
2023-01-10T06:53:05.584Z,13.50
2023-01-10T06:55:32.985Z,32.75
2023-01-10T06:58:04.874Z,23.50
2023-01-10T07:00:32.073Z,21.25
2023-01-10T07:03:02.244Z,24.00
2023-01-10T07:05:30.675Z,29.50
2023-01-10T07:07:59.016Z,29.00
2023-01-10T07:10:26.001Z,18.50
2023-01-10T07:12:55.488Z,27.00
2023-01-10T17:33:54.282Z,57.00
2023-01-10T17:36:39.641Z,66.67
2023-01-10T17:51:44.032Z,50.75
2023-01-10T17:54:39.962Z,44.25
2023-01-10T17:57:46.994Z,43.00
2023-01-10T18:13:06.836Z,48.75
2023-01-10T18:28:46.012Z,39.50
2023-01-10T18:31:22.332Z,57.67
2023-01-10T18:34:16.831Z,56.00
2023-01-10T18:36:47.490Z,52.25
2023-01-10T18:40:37.384Z,43.25
2023-01-10T18:43:05.820Z,54.00
2023-01-10T18:45:52.769Z,48.00
2023-01-10T18:49:19.545Z,49.50
2023-01-10T18:56:15.608Z,35.25
2023-01-10T19:20:18.949Z,42.00
2023-01-10T19:22:53.560Z,52.67
2023-01-10T19:25:40.534Z,46.33
2023-01-10T19:28:32.288Z,43.25
2023-01-10T19:31:53.708Z,48.00
2023-01-10T19:34:33.376Z,52.33
2023-01-10T19:37:05.100Z,57.33
2023-01-10T19:47:13.673Z,55.67
2023-01-10T19:53:07.049Z,50.00
2023-01-10T19:56:55.136Z,41.50
2023-01-10T19:59:54.678Z,33.50
2023-01-10T20:03:21.369Z,37.00
2023-01-10T20:06:03.908Z,53.67
2023-01-10T20:08:42.102Z,35.25
2023-01-10T20:12:04.091Z,38.75
2023-01-10T20:27:18.384Z,72.67
2023-01-10T20:33:53.354Z,58.33
2023-01-10T20:39:58.308Z,51.50
2023-01-10T20:50:23.412Z,55.00
2023-01-10T20:53:54.550Z,45.67
2023-01-10T20:57:47.475Z,40.50
2023-01-10T21:00:39.217Z,46.00
2023-01-10T21:12:07.420Z,43.25
2023-01-10T21:19:28.436Z,26.00
2023-01-10T21:29:53.600Z,48.50
2023-01-10T21:33:11.558Z,33.00
2023-01-10T21:36:29.336Z,32.25
2023-01-10T21:39:35.758Z,25.50
2023-01-10T21:46:27.095Z,48.50
2023-01-10T21:49:50.975Z,59.00
2023-01-10T21:59:35.444Z,47.00
2023-01-10T22:02:55.081Z,41.75
2023-01-10T22:09:04.548Z,31.50
2023-01-10T22:18:46.753Z,7.75
2023-01-10T22:22:09.509Z,7.50
2023-01-10T22:25:24.988Z,11.00
2023-01-10T22:31:45.075Z,11.50
2023-01-10T22:54:24.727Z,13.50
2023-01-10T23:00:44.797Z,23.50
2023-01-10T23:03:56.330Z,21.25
2023-01-10T23:06:52.044Z,21.25
2023-01-10T23:09:47.127Z,39.25
2023-01-10T23:12:52.622Z,42.75
2023-01-10T23:19:13.445Z,31.50
2023-01-10T23:25:51.062Z,24.75
2023-01-10T23:28:59.679Z,36.75
2023-01-10T23:35:33.161Z,45.50
2023-01-10T23:38:00.511Z,45.00
2023-01-10T23:40:27.504Z,25.00
2023-01-10T23:42:54.406Z,44.25
2023-01-10T23:45:21.244Z,43.50
2023-01-10T23:47:48.073Z,34.00
2023-01-10T23:50:15.122Z,25.25
2023-01-10T23:52:42.018Z,19.00
2023-01-10T23:55:11.559Z,20.50
2023-01-10T23:57:38.534Z,41.75
